createdAt,value
2024-01-26T00:01:05.737Z,18.10
2024-01-26T00:03:33.140Z,17.00
2024-01-26T00:06:01.929Z,20.80
2024-01-26T00:08:29.320Z,20.58
2024-01-26T00:10:56.866Z,21.37
2024-01-26T00:13:24.149Z,20.67
2024-01-26T00:15:51.630Z,19.00
2024-01-26T00:18:19.030Z,19.65
2024-01-26T00:20:46.372Z,18.80
2024-01-26T00:23:13.168Z,18.03
2024-01-26T00:25:40.483Z,17.60
2024-01-26T00:28:07.962Z,17.92
2024-01-26T00:30:36.164Z,19.23
2024-01-26T00:33:03.172Z,16.17
2024-01-26T00:35:30.496Z,18.13
2024-01-26T00:37:57.427Z,15.88
2024-01-26T00:40:24.255Z,15.90
2024-01-26T00:42:51.617Z,16.55
2024-01-26T00:45:19.037Z,14.98
2024-01-26T00:47:46.361Z,15.57
2024-01-26T00:50:13.765Z,15.00
2024-01-26T00:52:40.921Z,14.27
2024-01-26T00:55:08.208Z,12.82
2024-01-26T00:57:35.458Z,9.93
2024-01-26T01:00:08.345Z,12.57
2024-01-26T01:02:35.710Z,12.25
2024-01-26T01:05:03.272Z,9.02
2024-01-26T01:07:30.556Z,13.55
2024-01-26T01:09:57.780Z,11.48
2024-01-26T01:12:25.107Z,10.50
2024-01-26T01:14:52.464Z,14.50
2024-01-26T01:17:19.996Z,10.82
2024-01-26T01:19:47.290Z,9.73
2024-01-26T01:22:14.558Z,9.52
2024-01-26T01:24:41.392Z,9.80
2024-01-26T01:27:08.735Z,11.23
2024-01-26T01:29:36.164Z,11.73
2024-01-26T01:32:03.160Z,10.77
2024-01-26T01:34:30.844Z,11.25
2024-01-26T01:36:58.211Z,9.97
2024-01-26T01:39:25.038Z,10.23
2024-01-26T01:41:52.398Z,7.85
2024-01-26T01:44:19.620Z,7.70
2024-01-26T01:46:46.933Z,7.10
2024-01-26T01:49:13.995Z,8.33
2024-01-26T01:51:46.895Z,8.98
2024-01-26T01:54:14.314Z,9.95
2024-01-26T01:56:43.653Z,9.25
2024-01-26T01:59:10.984Z,9.30
2024-01-26T02:01:37.905Z,7.93
2024-01-26T02:04:06.579Z,7.80
2024-01-26T02:06:34.061Z,8.52
2024-01-26T02:09:01.005Z,7.25
2024-01-26T02:11:28.343Z,6.78
2024-01-26T02:13:55.545Z,7.17
2024-01-26T02:16:22.398Z,7.50
2024-01-26T02:18:49.861Z,7.10
2024-01-26T02:21:16.834Z,7.07
2024-01-26T02:23:44.994Z,6.55
2024-01-26T02:26:12.453Z,6.20
2024-01-26T02:28:39.771Z,7.10
2024-01-26T02:31:07.029Z,7.25
2024-01-26T02:33:34.635Z,6.32
2024-01-26T02:36:01.763Z,7.32
2024-01-26T02:38:29.095Z,8.03
2024-01-26T02:40:56.779Z,8.25
2024-01-26T02:43:24.095Z,9.85
2024-01-26T02:45:51.390Z,9.45
2024-01-26T02:48:18.859Z,10.23
2024-01-26T02:50:46.007Z,10.03
2024-01-26T02:53:13.260Z,11.27
2024-01-26T02:55:40.078Z,10.52
2024-01-26T02:58:07.339Z,12.70
2024-01-26T03:00:34.205Z,12.25
2024-01-26T03:03:01.485Z,9.80
2024-01-26T03:05:29.112Z,11.60
2024-01-26T03:07:56.417Z,12.32
2024-01-26T03:10:23.642Z,13.27
2024-01-26T03:12:50.598Z,11.95
2024-01-26T03:15:18.042Z,13.17
2024-01-26T03:17:45.511Z,10.60
2024-01-26T03:20:12.728Z,10.40
2024-01-26T03:22:40.888Z,12.35
2024-01-26T03:25:08.206Z,9.73
2024-01-26T03:27:35.082Z,7.57
2024-01-26T03:30:02.406Z,10.23
2024-01-26T03:32:29.545Z,7.45
2024-01-26T03:34:57.192Z,9.15
2024-01-26T03:37:24.157Z,8.18
2024-01-26T03:39:51.439Z,9.10
2024-01-26T03:42:18.815Z,6.78
2024-01-26T03:44:46.153Z,9.70
2024-01-26T03:47:13.396Z,6.82
2024-01-26T03:49:47.148Z,8.73
2024-01-26T03:52:14.551Z,8.60
2024-01-26T03:54:41.505Z,7.97
2024-01-26T03:57:08.986Z,7.63
2024-01-26T03:59:36.348Z,7.25
2024-01-26T04:02:03.654Z,7.18
2024-01-26T04:04:31.033Z,7.60
2024-01-26T04:06:58.380Z,4.65
2024-01-26T04:09:25.663Z,7.00
2024-01-26T04:11:52.901Z,9.07
2024-01-26T04:14:22.039Z,6.95
2024-01-26T04:16:49.268Z,7.40
2024-01-26T04:19:16.651Z,9.70
2024-01-26T04:21:44.165Z,7.43
2024-01-26T04:24:11.459Z,9.18
2024-01-26T04:26:38.851Z,9.65
2024-01-26T04:29:05.779Z,8.77
2024-01-26T04:31:33.096Z,7.60
2024-01-26T04:34:00.555Z,5.68
2024-01-26T04:36:28.680Z,8.20
2024-01-26T04:38:56.436Z,9.15
2024-01-26T04:41:23.344Z,9.20
2024-01-26T04:43:50.783Z,10.75
2024-01-26T04:46:17.691Z,9.35
2024-01-26T04:48:45.115Z,6.82
2024-01-26T04:51:12.555Z,9.82
2024-01-26T04:53:39.848Z,10.20
2024-01-26T04:56:07.259Z,7.85
2024-01-26T04:58:34.091Z,9.52
2024-01-26T05:01:01.400Z,8.75
2024-01-26T05:03:28.757Z,8.77
2024-01-26T05:05:56.589Z,8.90
2024-01-26T05:08:23.866Z,8.95
2024-01-26T05:10:51.358Z,11.38
2024-01-26T05:13:18.668Z,7.18
2024-01-26T05:15:45.921Z,8.15
2024-01-26T05:18:13.230Z,6.37
2024-01-26T05:20:40.179Z,9.23
2024-01-26T05:23:07.420Z,9.23
2024-01-26T05:25:34.697Z,9.23
2024-01-26T05:28:01.953Z,8.10
2024-01-26T05:30:28.820Z,9.03
2024-01-26T05:32:56.233Z,7.63
2024-01-26T05:35:23.576Z,9.75
2024-01-26T05:37:50.862Z,9.35
2024-01-26T05:40:18.211Z,7.93
2024-01-26T05:42:45.532Z,8.20
2024-01-26T05:45:14.479Z,10.68
2024-01-26T05:47:41.975Z,9.07
2024-01-26T05:50:09.308Z,9.25
2024-01-26T05:52:36.610Z,7.47
2024-01-26T05:55:03.865Z,8.03
2024-01-26T05:57:31.076Z,9.32
2024-01-26T05:59:57.919Z,7.55
2024-01-26T06:02:26.197Z,7.05
2024-01-26T06:04:54.395Z,7.70
2024-01-26T06:07:21.298Z,9.67
2024-01-26T06:09:48.546Z,7.88
2024-01-26T06:12:15.855Z,8.02
2024-01-26T06:14:43.143Z,9.85
2024-01-26T06:17:10.412Z,8.95
2024-01-26T06:19:39.412Z,8.33
2024-01-26T06:22:06.479Z,6.80
2024-01-26T06:24:33.769Z,7.35
2024-01-26T06:27:01.032Z,8.02
2024-01-26T06:29:28.348Z,5.43
2024-01-26T06:31:56.190Z,7.50
2024-01-26T06:34:23.508Z,7.53
2024-01-26T06:36:50.795Z,7.07
2024-01-26T06:39:17.707Z,6.90
2024-01-26T06:41:45.385Z,5.43
2024-01-26T06:44:15.305Z,7.77
2024-01-26T06:46:42.292Z,9.73
2024-01-26T06:49:09.953Z,5.80
2024-01-26T06:51:37.296Z,7.43
2024-01-26T06:54:04.320Z,7.72
2024-01-26T06:56:31.652Z,6.77
2024-01-26T06:58:59.086Z,6.20
2024-01-26T07:01:26.044Z,8.82
2024-01-26T07:03:53.327Z,7.85
2024-01-26T07:06:20.778Z,7.85
2024-01-26T07:08:47.862Z,8.30
2024-01-26T07:11:15.692Z,6.93
2024-01-26T07:13:42.586Z,7.50
2024-01-26T07:16:10.078Z,9.38
2024-01-26T07:18:37.593Z,9.80
2024-01-26T07:21:09.028Z,9.23
2024-01-26T07:23:36.445Z,9.30
2024-01-26T07:26:03.971Z,10.38
2024-01-26T07:28:31.533Z,9.57
2024-01-26T07:30:58.773Z,8.90
2024-01-26T07:33:26.163Z,8.90
2024-01-26T07:35:53.556Z,10.18
2024-01-26T07:38:20.951Z,10.07
2024-01-26T07:40:48.651Z,12.10
2024-01-26T07:43:16.436Z,8.73
2024-01-26T07:45:43.726Z,10.70
2024-01-26T07:48:13.696Z,11.02
2024-01-26T07:50:44.383Z,10.18
2024-01-26T07:53:12.581Z,9.35
2024-01-26T07:55:39.963Z,10.30
2024-01-26T07:58:07.628Z,7.77
2024-01-26T08:00:34.565Z,8.10
2024-01-26T08:03:02.111Z,7.22
2024-01-26T08:05:29.504Z,8.27
2024-01-26T08:07:56.882Z,7.68
2024-01-26T08:10:24.530Z,9.07
2024-01-26T08:12:52.332Z,8.13
2024-01-26T08:15:20.447Z,6.88
2024-01-26T08:17:48.698Z,6.78
2024-01-26T08:20:17.016Z,8.23
2024-01-26T08:22:45.336Z,6.73
2024-01-26T08:25:14.138Z,7.07
2024-01-26T08:27:42.094Z,6.40
2024-01-26T08:30:11.233Z,6.20
2024-01-26T08:32:38.665Z,8.13
2024-01-26T08:35:10.734Z,7.90
2024-01-26T08:37:38.459Z,6.72
2024-01-26T08:40:07.544Z,7.72
2024-01-26T08:42:35.089Z,7.25
2024-01-26T08:45:02.417Z,6.57
2024-01-26T08:47:29.329Z,5.60
2024-01-26T08:49:56.628Z,5.13
2024-01-26T08:52:23.971Z,4.93
2024-01-26T08:54:51.277Z,4.32
2024-01-26T08:57:18.604Z,4.90
2024-01-26T08:59:46.197Z,4.13
2024-01-26T09:02:13.075Z,3.83
2024-01-26T09:04:40.388Z,3.50
2024-01-26T09:07:10.684Z,2.90
2024-01-26T09:09:39.171Z,2.63
2024-01-26T09:12:07.603Z,2.20
2024-01-26T09:14:35.083Z,2.35
2024-01-26T09:17:02.382Z,2.38
2024-01-26T09:19:29.898Z,2.42
2024-01-26T09:21:57.315Z,1.95
2024-01-26T09:24:24.243Z,2.47
2024-01-26T09:26:54.036Z,2.38
2024-01-26T09:29:21.374Z,2.10
2024-01-26T09:31:49.964Z,2.10
2024-01-26T09:34:17.548Z,2.00
2024-01-26T09:36:45.150Z,1.83
2024-01-26T09:39:13.181Z,2.00
2024-01-26T09:41:40.907Z,1.73
2024-01-26T09:44:09.848Z,1.73
2024-01-26T09:46:37.394Z,1.70
2024-01-26T09:49:04.892Z,1.70
2024-01-26T09:51:32.394Z,1.50
2024-01-26T09:54:01.709Z,1.90
2024-01-26T09:56:29.274Z,1.80
2024-01-26T09:58:56.563Z,1.38
2024-01-26T10:01:24.446Z,2.10
2024-01-26T10:03:54.113Z,2.42
2024-01-26T10:06:22.070Z,1.90
2024-01-26T10:08:50.041Z,2.15
2024-01-26T10:11:17.320Z,2.20
2024-01-26T10:13:44.655Z,2.00
2024-01-26T10:16:15.072Z,2.00
2024-01-26T10:18:43.731Z,2.20
2024-01-26T10:21:12.018Z,2.53
2024-01-26T10:23:39.435Z,2.03
2024-01-26T10:26:06.939Z,2.57
2024-01-26T10:28:34.597Z,2.30
2024-01-26T10:31:02.037Z,2.53
2024-01-26T10:33:32.661Z,2.30
2024-01-26T10:36:02.655Z,2.55
2024-01-26T10:38:33.895Z,2.53
2024-01-26T10:41:05.680Z,3.25
2024-01-26T10:43:33.786Z,2.28
2024-01-26T10:46:03.291Z,2.38
2024-01-26T10:48:31.778Z,2.20
2024-01-26T10:51:00.338Z,2.27
2024-01-26T10:53:28.511Z,2.72
2024-01-26T10:55:57.179Z,2.35
2024-01-26T10:58:24.604Z,3.08
2024-01-26T11:00:52.398Z,2.88
2024-01-26T11:03:20.859Z,3.07
2024-01-26T11:05:51.994Z,2.90
2024-01-26T11:08:27.476Z,2.45
2024-01-26T11:10:57.616Z,2.92
2024-01-26T11:13:28.047Z,2.67
2024-01-26T11:16:05.674Z,2.87
2024-01-26T11:18:37.238Z,2.50
2024-01-26T11:21:05.314Z,2.55
2024-01-26T11:23:42.760Z,2.95
2024-01-26T11:26:18.859Z,2.50
2024-01-26T11:28:48.321Z,2.53
2024-01-26T11:31:16.196Z,3.15
2024-01-26T11:33:44.416Z,2.72
2024-01-26T11:36:15.540Z,2.30
2024-01-26T11:38:43.796Z,2.47
2024-01-26T11:41:12.121Z,3.77
2024-01-26T11:43:46.416Z,2.40
2024-01-26T11:46:14.868Z,3.00
2024-01-26T11:48:42.891Z,2.20
2024-01-26T11:51:10.951Z,2.08
2024-01-26T11:53:38.979Z,2.53
2024-01-26T11:56:06.454Z,2.70
2024-01-26T11:58:33.906Z,2.40
2024-01-26T12:01:06.274Z,2.33
2024-01-26T12:03:33.726Z,2.70
2024-01-26T12:06:01.319Z,3.30
2024-01-26T12:08:28.549Z,3.28
2024-01-26T12:10:56.317Z,3.05
2024-01-26T12:13:23.524Z,2.80
2024-01-26T12:15:51.388Z,2.55
2024-01-26T12:18:19.307Z,2.90
2024-01-26T12:20:48.554Z,2.53
2024-01-26T12:23:20.870Z,2.35
2024-01-26T12:25:54.279Z,2.15
2024-01-26T12:28:22.037Z,2.40
2024-01-26T12:30:49.540Z,2.40
2024-01-26T12:33:17.365Z,2.75
2024-01-26T12:35:47.854Z,2.72
2024-01-26T12:38:15.171Z,2.42
2024-01-26T12:40:42.462Z,2.45
2024-01-26T12:43:10.088Z,2.90
2024-01-26T12:45:37.515Z,3.50
2024-01-26T12:48:06.023Z,2.30
2024-01-26T12:50:33.346Z,2.47
2024-01-26T12:53:00.625Z,2.33
2024-01-26T12:55:27.962Z,2.83
2024-01-26T12:57:56.522Z,2.10
2024-01-26T13:00:24.660Z,2.28
2024-01-26T13:02:52.697Z,2.83
2024-01-26T13:05:21.490Z,2.47
2024-01-26T13:07:49.032Z,3.03
2024-01-26T13:10:16.810Z,2.33
2024-01-26T13:12:44.570Z,2.78
2024-01-26T13:15:12.802Z,2.03
2024-01-26T13:17:40.358Z,2.17
2024-01-26T13:20:18.815Z,2.27
2024-01-26T13:22:49.197Z,3.20
2024-01-26T13:25:17.001Z,2.67
2024-01-26T13:27:44.650Z,2.20
2024-01-26T13:30:12.414Z,2.55
2024-01-26T13:32:40.089Z,2.40
2024-01-26T13:35:07.781Z,2.83
2024-01-26T13:37:35.040Z,2.80
2024-01-26T13:40:02.128Z,2.30
2024-01-26T13:42:31.540Z,3.28
2024-01-26T13:44:59.097Z,2.77
2024-01-26T13:47:27.152Z,3.50
2024-01-26T13:49:56.630Z,2.80
2024-01-26T13:52:24.374Z,2.65
2024-01-26T13:54:51.679Z,2.92
2024-01-26T13:57:19.128Z,1.97
2024-01-26T13:59:46.515Z,2.60
2024-01-26T14:02:14.022Z,2.95
2024-01-26T14:04:41.259Z,2.58
2024-01-26T14:07:08.523Z,2.65
2024-01-26T14:09:36.029Z,2.87
2024-01-26T14:12:04.966Z,2.28
2024-01-26T14:14:33.631Z,1.90
2024-01-26T14:17:01.889Z,2.22
2024-01-26T14:19:30.535Z,2.83
2024-01-26T14:21:58.893Z,2.60
2024-01-26T14:24:27.971Z,2.95
2024-01-26T14:26:55.492Z,2.83
2024-01-26T14:29:22.841Z,2.35
2024-01-26T14:31:51.954Z,2.70
2024-01-26T14:34:20.422Z,2.00
2024-01-26T14:36:48.542Z,2.10
2024-01-26T14:39:16.131Z,2.10
2024-01-26T14:41:43.571Z,2.15
2024-01-26T14:44:10.835Z,1.90
2024-01-26T14:46:39.661Z,1.97
2024-01-26T14:49:07.584Z,2.65
2024-01-26T14:51:35.601Z,2.42
2024-01-26T14:54:03.061Z,2.45
2024-01-26T14:56:31.731Z,2.90
2024-01-26T14:58:59.263Z,2.10
2024-01-26T15:01:26.578Z,2.45
2024-01-26T15:03:54.237Z,2.25
2024-01-26T15:06:21.617Z,2.00
2024-01-26T15:08:49.025Z,2.80
2024-01-26T15:11:18.095Z,2.63
2024-01-26T15:13:45.394Z,2.67
2024-01-26T15:16:15.553Z,2.58
2024-01-26T15:18:42.880Z,3.05
2024-01-26T15:21:21.217Z,2.38
2024-01-26T15:23:49.350Z,2.80
2024-01-26T15:26:16.696Z,2.83
2024-01-26T15:28:44.008Z,2.33
2024-01-26T15:31:11.226Z,2.30
2024-01-26T15:33:38.580Z,2.90
2024-01-26T15:36:06.484Z,3.27
2024-01-26T15:38:34.157Z,2.42
2024-01-26T15:41:01.369Z,2.08
2024-01-26T15:43:28.605Z,2.90
2024-01-26T15:45:55.848Z,3.10
2024-01-26T15:48:23.283Z,2.43
2024-01-26T15:50:50.229Z,3.10
2024-01-26T15:53:17.558Z,2.53
2024-01-26T15:55:44.789Z,3.97
2024-01-26T15:58:12.015Z,2.17
2024-01-26T16:00:39.421Z,3.23
2024-01-26T16:03:07.030Z,2.83
2024-01-26T16:05:34.776Z,2.70
2024-01-26T16:08:02.707Z,3.38
2024-01-26T16:10:29.517Z,2.80
2024-01-26T16:12:56.796Z,2.50
2024-01-26T16:15:24.196Z,2.00
2024-01-26T16:17:51.541Z,2.42
2024-01-26T16:20:20.075Z,2.85
2024-01-26T16:22:47.310Z,2.45
2024-01-26T16:25:14.620Z,2.63
2024-01-26T16:27:41.876Z,3.55
2024-01-26T16:30:11.986Z,3.05
2024-01-26T16:32:39.567Z,3.05
2024-01-26T16:35:07.340Z,3.13
2024-01-26T16:37:34.831Z,3.77
2024-01-26T16:40:04.644Z,2.83
2024-01-26T16:42:32.084Z,3.30
2024-01-26T16:44:59.402Z,3.38
2024-01-26T16:47:26.678Z,3.58
2024-01-26T16:49:56.261Z,3.33
2024-01-26T16:52:23.433Z,3.55
2024-01-26T16:54:50.753Z,4.38
2024-01-26T16:57:18.147Z,4.63
2024-01-26T16:59:45.726Z,3.78
2024-01-26T17:02:13.154Z,3.30
2024-01-26T17:04:40.559Z,4.82
2024-01-26T17:07:07.919Z,4.00
2024-01-26T17:09:35.244Z,3.50
2024-01-26T17:12:02.626Z,5.57
2024-01-26T17:14:29.950Z,6.53
2024-01-26T17:16:57.205Z,4.82
2024-01-26T17:19:24.540Z,5.68
2024-01-26T17:21:51.852Z,6.53
2024-01-26T17:24:19.163Z,4.53
2024-01-26T17:26:46.559Z,4.73
2024-01-26T17:29:13.870Z,6.32
2024-01-26T17:31:41.130Z,3.97
2024-01-26T17:34:08.490Z,4.43
2024-01-26T17:36:35.909Z,4.22
2024-01-26T17:39:03.690Z,3.80
2024-01-26T17:41:30.954Z,4.07
2024-01-26T17:43:58.228Z,4.93
2024-01-26T17:46:26.074Z,5.72
2024-01-26T17:48:53.615Z,4.22
2024-01-26T17:51:21.311Z,4.30
2024-01-26T17:53:48.239Z,4.72
2024-01-26T17:56:15.563Z,5.95
2024-01-26T17:58:42.935Z,5.70
2024-01-26T18:01:10.205Z,4.38
2024-01-26T18:03:37.538Z,3.60
2024-01-26T18:06:05.016Z,6.68
2024-01-26T18:08:32.357Z,7.10
2024-01-26T18:11:00.991Z,7.07
2024-01-26T18:13:28.207Z,5.95
2024-01-26T18:15:55.065Z,4.70
2024-01-26T18:18:22.510Z,7.10
2024-01-26T18:20:49.897Z,8.63
2024-01-26T18:23:17.162Z,5.15
2024-01-26T18:25:44.420Z,6.82
2024-01-26T18:28:11.725Z,5.30
2024-01-26T18:30:38.622Z,5.25
2024-01-26T18:33:06.183Z,5.00
2024-01-26T18:35:33.529Z,4.38
2024-01-26T18:38:00.885Z,5.00
2024-01-26T18:40:28.172Z,5.90
2024-01-26T18:42:55.533Z,4.22
2024-01-26T18:45:23.239Z,4.82
2024-01-26T18:47:50.756Z,3.78
2024-01-26T18:50:18.189Z,4.78
2024-01-26T18:52:45.774Z,4.03
2024-01-26T18:55:12.934Z,4.53
2024-01-26T18:57:41.529Z,6.70
2024-01-26T19:00:11.779Z,4.85
2024-01-26T19:02:40.295Z,9.98
2024-01-26T19:05:13.771Z,12.63
2024-01-26T19:07:42.819Z,7.97
2024-01-26T19:10:10.216Z,10.52
2024-01-26T19:12:37.608Z,11.20
2024-01-26T19:15:06.664Z,9.25
2024-01-26T19:17:34.306Z,10.83
2024-01-26T19:20:01.948Z,13.15
2024-01-26T19:22:29.392Z,11.90
2024-01-26T19:24:56.649Z,13.85
2024-01-26T19:27:24.457Z,14.10
2024-01-26T19:29:51.842Z,14.23
2024-01-26T19:32:19.422Z,10.07
2024-01-26T19:34:46.290Z,8.23
2024-01-26T19:37:13.615Z,10.82
2024-01-26T19:39:40.908Z,8.23
2024-01-26T19:42:08.178Z,9.33
2024-01-26T19:44:35.924Z,8.77
2024-01-26T19:47:04.418Z,11.02
2024-01-26T19:49:32.812Z,9.13
2024-01-26T19:52:00.297Z,7.32
2024-01-26T19:54:27.950Z,8.33
2024-01-26T19:56:55.328Z,8.98
2024-01-26T19:59:22.660Z,8.82
2024-01-26T20:01:49.922Z,8.43
2024-01-26T20:04:17.375Z,8.15
2024-01-26T20:06:44.860Z,27.70
2024-01-26T20:09:14.564Z,8.88
2024-01-26T20:11:41.664Z,10.57
2024-01-26T20:14:09.498Z,10.82
2024-01-26T20:16:37.776Z,15.45
2024-01-26T20:19:05.715Z,8.80
2024-01-26T20:21:33.124Z,8.55
2024-01-26T20:24:00.757Z,7.20
2024-01-26T20:26:28.014Z,8.57
2024-01-26T20:28:57.618Z,7.93
2024-01-26T20:31:25.058Z,6.43
2024-01-26T20:33:52.712Z,8.88
2024-01-26T20:36:21.262Z,7.65
2024-01-26T20:38:50.362Z,7.68
2024-01-26T20:41:17.735Z,11.00
2024-01-26T20:43:45.209Z,10.00
2024-01-26T20:46:12.196Z,8.45
2024-01-26T20:48:40.382Z,8.52
2024-01-26T20:51:07.971Z,6.70
2024-01-26T20:53:35.368Z,7.88
2024-01-26T20:56:03.965Z,6.97
2024-01-26T20:58:31.255Z,6.80
2024-01-26T21:00:58.643Z,5.95
2024-01-26T21:03:26.099Z,7.75
2024-01-26T21:05:53.537Z,13.13
2024-01-26T21:08:20.692Z,8.30
2024-01-26T21:10:49.758Z,19.95
2024-01-26T21:13:17.896Z,16.55
2024-01-26T21:15:46.180Z,11.20
2024-01-26T21:18:15.255Z,10.48
2024-01-26T21:20:43.759Z,13.07
2024-01-26T21:23:11.214Z,15.73
2024-01-26T21:25:38.103Z,12.98
2024-01-26T21:28:05.269Z,11.02
2024-01-26T21:30:33.080Z,9.07
2024-01-26T21:33:01.317Z,9.23
2024-01-26T21:35:29.149Z,12.30
2024-01-26T21:37:58.090Z,11.45
2024-01-26T21:40:25.828Z,18.13
2024-01-26T21:42:53.337Z,21.60
2024-01-26T21:45:20.895Z,17.47
2024-01-26T21:47:48.143Z,32.25
2024-01-26T21:50:17.300Z,22.30
2024-01-26T21:52:44.860Z,35.63
2024-01-26T21:55:12.305Z,32.78
2024-01-26T21:57:39.383Z,33.70
2024-01-26T22:00:07.871Z,13.50
2024-01-26T22:02:35.227Z,10.38
2024-01-26T22:05:03.107Z,9.20
2024-01-26T22:07:30.452Z,10.15
2024-01-26T22:09:59.105Z,9.53
2024-01-26T22:12:26.662Z,9.00
2024-01-26T22:14:54.102Z,7.50
2024-01-26T22:17:21.360Z,6.70
2024-01-26T22:19:48.529Z,7.30
2024-01-26T22:22:16.632Z,9.77
2024-01-26T22:24:44.106Z,8.18
2024-01-26T22:27:11.130Z,8.70
2024-01-26T22:29:38.012Z,8.75
2024-01-26T22:32:05.213Z,11.93
2024-01-26T22:34:32.565Z,8.30
2024-01-26T22:37:01.090Z,6.35
2024-01-26T22:39:28.669Z,6.78
2024-01-26T22:41:56.661Z,8.82
2024-01-26T22:44:23.984Z,7.13
2024-01-26T22:46:51.297Z,5.70
2024-01-26T22:49:21.988Z,7.13
2024-01-26T22:51:49.605Z,6.93
2024-01-26T22:54:16.928Z,7.28
2024-01-26T22:56:44.259Z,6.70
2024-01-26T22:59:11.948Z,6.43
2024-01-26T23:01:39.697Z,6.47
2024-01-26T23:04:07.244Z,6.20
2024-01-26T23:06:34.707Z,5.93
2024-01-26T23:09:02.183Z,10.80
2024-01-26T23:11:30.831Z,8.47
2024-01-26T23:13:58.099Z,6.60
2024-01-26T23:16:25.945Z,5.50
2024-01-26T23:18:57.028Z,8.02
2024-01-26T23:21:24.371Z,7.07
2024-01-26T23:23:51.697Z,5.60
2024-01-26T23:26:19.090Z,5.38
2024-01-26T23:28:45.914Z,5.97
2024-01-26T23:31:13.979Z,5.28
2024-01-26T23:33:41.615Z,5.68
2024-01-26T23:36:10.040Z,4.97
2024-01-26T23:38:37.357Z,5.18
2024-01-26T23:41:08.255Z,5.38
2024-01-26T23:43:36.685Z,5.82
2024-01-26T23:46:03.977Z,6.32
2024-01-26T23:48:31.373Z,5.80
2024-01-26T23:50:59.154Z,5.75
2024-01-26T23:53:26.032Z,6.38
2024-01-26T23:55:53.316Z,5.72
2024-01-26T23:58:20.553Z,6.47
